createdAt,value
2019-02-25T00:00:10.813Z,17.30
2019-02-25T00:02:39.116Z,16.77
2019-02-25T00:05:08.518Z,18.17
2019-02-25T00:07:37.081Z,20.60
2019-02-25T00:10:08.280Z,14.67
2019-02-25T00:12:36.542Z,15.27
2019-02-25T00:15:07.506Z,20.07
2019-02-25T00:17:35.783Z,15.33
2019-02-25T00:20:06.761Z,14.17
2019-02-25T00:22:35.051Z,15.63
2019-02-25T00:25:03.390Z,15.50
2019-02-25T00:27:31.667Z,13.67
2019-02-25T00:30:00.310Z,18.43
2019-02-25T00:32:28.768Z,16.40
2019-02-25T00:34:57.039Z,16.03
2019-02-25T00:37:25.327Z,13.90
2019-02-25T00:39:53.588Z,17.87
2019-02-25T00:42:21.946Z,18.33
2019-02-25T00:44:50.449Z,18.27
2019-02-25T00:47:18.730Z,18.13
2019-02-25T00:49:46.982Z,17.10
2019-02-25T00:52:15.552Z,19.37
2019-02-25T00:54:43.794Z,21.23
2019-02-25T00:57:12.303Z,15.13
2019-02-25T00:59:40.870Z,16.07
2019-02-25T01:02:09.370Z,16.43
2019-02-25T01:04:37.878Z,13.80
2019-02-25T01:07:06.845Z,16.80
2019-02-25T01:09:35.226Z,16.03
2019-02-25T01:12:03.463Z,14.67
2019-02-25T01:14:31.740Z,17.47
2019-02-25T01:16:59.985Z,15.03
2019-02-25T01:19:28.344Z,17.20
2019-02-25T01:21:56.597Z,19.10
2019-02-25T01:24:24.947Z,17.23
2019-02-25T01:26:53.194Z,18.87
2019-02-25T01:29:21.762Z,16.67
2019-02-25T01:31:50.010Z,18.07
2019-02-25T01:34:18.285Z,17.97
2019-02-25T01:36:46.553Z,14.47
2019-02-25T01:39:15.282Z,16.33
2019-02-25T01:41:43.597Z,15.57
2019-02-25T01:44:11.889Z,14.77
2019-02-25T01:46:40.150Z,18.40
2019-02-25T01:49:08.718Z,17.97
2019-02-25T01:51:37.267Z,16.70
2019-02-25T01:54:05.845Z,13.63
2019-02-25T01:56:34.133Z,12.80
2019-02-25T01:59:02.446Z,11.17
2019-02-25T02:01:30.701Z,13.50
2019-02-25T02:03:58.987Z,12.70
2019-02-25T02:06:27.232Z,11.17
2019-02-25T02:08:55.505Z,15.00
2019-02-25T02:11:23.769Z,15.03
2019-02-25T02:13:52.025Z,12.80
2019-02-25T02:16:20.363Z,14.07
2019-02-25T02:18:48.649Z,20.13
2019-02-25T02:21:16.889Z,12.20
2019-02-25T02:23:45.496Z,12.67
2019-02-25T02:26:13.745Z,11.60
2019-02-25T02:28:42.008Z,14.70
2019-02-25T02:31:10.266Z,14.90
2019-02-25T02:33:38.805Z,10.93
2019-02-25T02:36:07.122Z,13.77
2019-02-25T02:38:35.656Z,10.50
2019-02-25T02:41:03.986Z,11.60
2019-02-25T02:43:32.267Z,16.13
2019-02-25T02:46:06.813Z,12.40
2019-02-25T02:48:41.324Z,11.53
2019-02-25T02:51:09.941Z,13.83
2019-02-25T02:53:38.222Z,15.90
2019-02-25T02:56:06.464Z,12.83
2019-02-25T02:58:34.730Z,13.67
2019-02-25T03:01:03.081Z,13.80
2019-02-25T03:03:31.319Z,11.50
2019-02-25T03:05:59.596Z,13.60
2019-02-25T03:08:27.929Z,10.73
2019-02-25T03:10:56.547Z,13.23
2019-02-25T03:13:24.786Z,12.80
2019-02-25T03:15:53.076Z,13.53
2019-02-25T03:18:21.342Z,12.83
2019-02-25T03:20:49.612Z,9.90
2019-02-25T03:23:17.933Z,14.80
2019-02-25T03:25:46.213Z,12.53
2019-02-25T03:28:14.471Z,13.43
2019-02-25T03:30:42.835Z,10.53
2019-02-25T03:33:11.140Z,10.97
2019-02-25T03:35:39.410Z,9.33
2019-02-25T03:38:07.650Z,12.40
2019-02-25T03:40:35.919Z,11.53
2019-02-25T03:43:04.160Z,11.37
2019-02-25T03:45:32.697Z,12.93
2019-02-25T03:48:00.950Z,12.77
2019-02-25T03:50:29.281Z,11.07
2019-02-25T03:52:57.625Z,12.37
2019-02-25T03:55:26.188Z,12.90
2019-02-25T03:57:54.692Z,11.07
2019-02-25T04:00:24.069Z,10.80
2019-02-25T04:02:52.310Z,9.03
2019-02-25T04:05:20.595Z,8.40
2019-02-25T04:07:48.844Z,14.97
2019-02-25T04:10:17.377Z,13.40
2019-02-25T04:12:45.635Z,10.40
2019-02-25T04:15:19.744Z,11.57
2019-02-25T04:17:48.055Z,15.20
2019-02-25T04:20:17.283Z,9.83
2019-02-25T04:22:45.522Z,16.70
2019-02-25T04:25:14.181Z,12.70
2019-02-25T04:27:42.420Z,14.00
2019-02-25T04:30:18.294Z,12.37
2019-02-25T04:32:46.556Z,13.47
2019-02-25T04:35:14.851Z,12.57
2019-02-25T04:37:43.156Z,12.50
2019-02-25T04:40:14.998Z,10.53
2019-02-25T04:42:43.246Z,12.80
2019-02-25T04:45:14.210Z,13.53
2019-02-25T04:47:42.789Z,11.53
2019-02-25T04:50:12.089Z,11.80
2019-02-25T04:52:40.364Z,15.20
2019-02-25T04:55:12.959Z,14.30
2019-02-25T04:57:41.214Z,14.87
2019-02-25T05:00:15.477Z,11.50
2019-02-25T05:02:43.748Z,11.93
2019-02-25T05:05:12.466Z,13.27
2019-02-25T05:07:40.726Z,12.90
2019-02-25T05:10:11.588Z,12.40
2019-02-25T05:12:41.805Z,12.57
2019-02-25T05:15:11.870Z,11.77
2019-02-25T05:17:40.105Z,14.83
2019-02-25T05:20:08.750Z,11.77
2019-02-25T05:22:37.654Z,17.23
2019-02-25T05:25:08.081Z,10.80
2019-02-25T05:27:36.578Z,12.47
2019-02-25T05:30:08.697Z,11.37
2019-02-25T05:32:37.168Z,12.77
2019-02-25T05:35:07.463Z,11.80
2019-02-25T05:37:35.734Z,14.77
2019-02-25T05:40:06.710Z,9.87
2019-02-25T05:42:35.079Z,15.17
2019-02-25T05:45:03.848Z,12.07
2019-02-25T05:47:32.281Z,15.70
2019-02-25T05:50:00.604Z,19.25
2019-02-25T05:52:29.188Z,18.30
2019-02-25T05:54:57.777Z,17.73
2019-02-25T05:57:26.131Z,13.77
2019-02-25T05:59:54.375Z,14.93
2019-02-25T06:02:22.655Z,13.83
2019-02-25T06:04:50.908Z,13.10
2019-02-25T06:07:19.170Z,14.17
2019-02-25T06:09:47.445Z,11.70
2019-02-25T06:12:15.713Z,12.47
2019-02-25T06:14:43.962Z,11.53
2019-02-25T06:17:12.252Z,13.03
2019-02-25T06:19:40.554Z,11.57
2019-02-25T06:22:08.825Z,12.37
2019-02-25T06:24:37.414Z,11.40
2019-02-25T06:27:06.694Z,14.60
2019-02-25T06:29:34.966Z,18.27
2019-02-25T06:32:03.536Z,12.87
2019-02-25T06:34:31.799Z,15.63
2019-02-25T06:37:00.075Z,10.67
2019-02-25T06:39:28.571Z,14.27
2019-02-25T06:41:57.171Z,12.30
2019-02-25T06:44:25.739Z,15.33
2019-02-25T06:46:54.013Z,13.93
2019-02-25T06:49:22.609Z,15.10
2019-02-25T06:51:50.892Z,20.43
2019-02-25T06:54:19.141Z,13.60
2019-02-25T06:56:47.608Z,12.50
2019-02-25T06:59:15.840Z,15.83
2019-02-25T07:01:44.115Z,15.67
2019-02-25T07:04:21.866Z,10.93
2019-02-25T07:06:54.502Z,14.00
2019-02-25T07:09:33.394Z,15.93
2019-02-25T07:12:06.109Z,13.47
2019-02-25T07:14:36.273Z,14.33
2019-02-25T07:17:06.283Z,14.03
2019-02-25T07:19:48.722Z,19.20
2019-02-25T07:22:24.886Z,16.57
2019-02-25T07:24:54.772Z,18.83
2019-02-25T07:27:25.218Z,15.27
2019-02-25T07:29:55.436Z,19.00
2019-02-25T07:32:25.413Z,16.40
2019-02-25T07:34:58.024Z,15.37
2019-02-25T07:37:28.011Z,14.50
2019-02-25T07:40:06.844Z,14.23
2019-02-25T07:42:43.046Z,14.83
2019-02-25T07:45:24.457Z,17.27
2019-02-25T07:48:00.164Z,13.67
2019-02-25T07:50:35.785Z,16.87
2019-02-25T07:53:21.804Z,14.80
2019-02-25T07:56:08.157Z,16.60
2019-02-25T07:58:53.406Z,24.30
2019-02-25T08:01:26.421Z,20.03
2019-02-25T08:04:08.298Z,15.67
2019-02-25T08:06:41.033Z,17.43
2019-02-25T08:09:19.954Z,12.93
2019-02-25T08:12:07.734Z,13.67
2019-02-25T08:14:37.629Z,14.13
2019-02-25T08:17:19.843Z,15.83
2019-02-25T08:19:50.029Z,10.97
2019-02-25T08:22:28.947Z,11.67
2019-02-25T08:25:04.815Z,14.27
2019-02-25T08:27:35.041Z,13.60
2019-02-25T08:30:04.931Z,15.57
2019-02-25T08:32:43.830Z,15.33
2019-02-25T08:35:17.229Z,17.80
2019-02-25T08:37:50.153Z,14.17
2019-02-25T08:40:32.345Z,19.57
2019-02-25T08:43:10.370Z,13.00
2019-02-25T08:45:43.124Z,16.03
2019-02-25T08:48:19.077Z,14.37
2019-02-25T08:50:47.323Z,16.40
2019-02-25T08:53:15.845Z,16.17
2019-02-25T08:55:44.093Z,13.03
2019-02-25T08:58:12.384Z,15.63
2019-02-25T09:00:41.179Z,13.30
2019-02-25T09:03:09.809Z,11.67
2019-02-25T09:05:38.059Z,15.33
2019-02-25T09:08:06.331Z,19.63
2019-02-25T09:10:36.823Z,11.90
2019-02-25T09:13:05.111Z,16.60
2019-02-25T09:15:33.360Z,16.47
2019-02-25T09:18:00.935Z,13.77
2019-02-25T09:20:29.190Z,16.07
2019-02-25T09:22:57.469Z,16.77
2019-02-25T09:25:26.031Z,11.83
2019-02-25T09:27:54.611Z,24.07
2019-02-25T09:30:22.839Z,17.77
2019-02-25T09:32:51.120Z,15.10
2019-02-25T09:35:19.367Z,15.17
2019-02-25T09:37:47.634Z,11.30
2019-02-25T09:40:16.829Z,12.30
2019-02-25T09:42:45.107Z,14.20
2019-02-25T09:45:17.443Z,13.73
2019-02-25T09:47:46.042Z,13.90
2019-02-25T09:50:16.750Z,14.27
2019-02-25T09:52:45.157Z,13.47
2019-02-25T09:55:14.334Z,13.17
2019-02-25T09:57:42.624Z,11.77
2019-02-25T10:00:14.127Z,13.50
2019-02-25T10:02:42.393Z,16.53
2019-02-25T10:05:10.817Z,14.20
2019-02-25T10:07:39.094Z,13.23
2019-02-25T10:10:15.402Z,13.10
2019-02-25T10:12:43.700Z,12.47
2019-02-25T10:15:21.157Z,14.47
2019-02-25T10:17:49.438Z,17.53
2019-02-25T10:20:17.689Z,11.27
2019-02-25T10:22:45.974Z,13.17
2019-02-25T10:25:15.501Z,12.53
2019-02-25T10:27:43.792Z,12.30
2019-02-25T10:30:14.336Z,13.50
2019-02-25T10:32:42.609Z,15.60
2019-02-25T10:35:12.935Z,12.43
2019-02-25T10:37:41.564Z,11.80
2019-02-25T10:40:13.671Z,8.83
2019-02-25T10:42:43.216Z,9.63
2019-02-25T10:45:20.398Z,9.23
2019-02-25T10:47:49.479Z,10.20
2019-02-25T10:50:18.747Z,9.47
2019-02-25T10:52:49.239Z,10.67
2019-02-25T10:55:32.090Z,12.03
2019-02-25T10:58:02.013Z,9.87
2019-02-25T11:00:30.516Z,9.07
2019-02-25T11:02:58.820Z,8.23
2019-02-25T11:05:29.963Z,8.97
2019-02-25T11:07:57.137Z,8.53
2019-02-25T11:10:38.973Z,9.63
2019-02-25T11:13:07.266Z,10.50
2019-02-25T11:15:37.510Z,7.53
2019-02-25T11:18:07.524Z,9.57
2019-02-25T11:20:37.636Z,9.90
2019-02-25T11:23:06.063Z,9.23
2019-02-25T11:25:34.378Z,9.97
2019-02-25T11:28:04.416Z,10.63
2019-02-25T11:30:32.738Z,10.93
2019-02-25T11:33:00.994Z,9.40
2019-02-25T11:35:36.632Z,12.43
2019-02-25T11:38:05.584Z,9.27
2019-02-25T11:40:35.941Z,10.23
2019-02-25T11:43:08.389Z,9.67
2019-02-25T11:45:36.875Z,12.03
2019-02-25T11:48:05.124Z,11.67
2019-02-25T11:50:33.402Z,8.53
2019-02-25T11:53:01.649Z,9.70
2019-02-25T11:55:29.935Z,11.30
2019-02-25T11:57:58.203Z,7.73
2019-02-25T12:00:27.349Z,11.80
2019-02-25T12:02:55.660Z,9.53
2019-02-25T12:05:24.005Z,12.17
2019-02-25T12:07:52.599Z,11.60
2019-02-25T12:10:20.914Z,9.50
2019-02-25T12:12:49.242Z,12.70
2019-02-25T12:15:19.865Z,10.50
2019-02-25T12:17:48.114Z,14.73
2019-02-25T12:20:16.468Z,9.90
2019-02-25T12:22:44.783Z,10.00
2019-02-25T12:25:18.172Z,10.53
2019-02-25T12:27:46.424Z,13.63
2019-02-25T12:30:19.794Z,9.97
2019-02-25T12:32:48.058Z,11.83
2019-02-25T12:35:16.350Z,14.33
2019-02-25T12:37:44.601Z,12.43
2019-02-25T12:40:13.938Z,10.13
2019-02-25T12:42:42.215Z,8.73
2019-02-25T12:45:14.437Z,11.43
2019-02-25T12:47:42.684Z,9.10
2019-02-25T12:50:16.431Z,9.57
2019-02-25T12:52:45.038Z,12.13
2019-02-25T12:55:19.960Z,9.30
2019-02-25T12:57:48.537Z,11.17
2019-02-25T13:00:20.081Z,10.77
2019-02-25T13:02:48.339Z,9.47
2019-02-25T13:05:17.657Z,10.73
2019-02-25T13:07:46.011Z,8.27
2019-02-25T13:10:16.324Z,10.87
2019-02-25T13:12:44.623Z,9.60
2019-02-25T13:15:18.140Z,9.13
2019-02-25T13:17:46.407Z,8.67
2019-02-25T13:20:15.248Z,15.80
2019-02-25T13:22:43.558Z,11.03
2019-02-25T13:25:17.132Z,10.37
2019-02-25T13:27:45.449Z,11.40
2019-02-25T13:30:17.681Z,13.70
2019-02-25T13:32:46.320Z,14.90
2019-02-25T13:35:15.305Z,16.70
2019-02-25T13:37:43.809Z,14.30
2019-02-25T13:40:13.727Z,10.17
2019-02-25T13:42:42.042Z,9.83
2019-02-25T13:45:16.734Z,12.93
2019-02-25T13:47:45.086Z,12.00
2019-02-25T13:50:14.776Z,8.40
2019-02-25T13:52:48.525Z,8.27
2019-02-25T13:55:14.524Z,11.83
2019-02-25T13:57:42.866Z,7.53
2019-02-25T14:00:17.017Z,7.70
2019-02-25T14:02:45.402Z,8.57
2019-02-25T14:05:14.219Z,10.23
2019-02-25T14:07:42.930Z,10.07
2019-02-25T14:10:15.266Z,12.03
2019-02-25T14:12:43.937Z,17.20
2019-02-25T14:15:25.177Z,9.83
2019-02-25T14:17:53.477Z,8.03
2019-02-25T14:20:27.764Z,11.13
2019-02-25T14:22:56.132Z,8.43
2019-02-25T14:25:30.143Z,8.73
2019-02-25T14:27:58.750Z,12.97
2019-02-25T14:30:27.759Z,9.43
2019-02-25T14:32:56.263Z,17.37
2019-02-25T14:35:29.554Z,9.73
2019-02-25T14:38:02.480Z,10.57
2019-02-25T14:40:32.140Z,13.40
2019-02-25T14:42:59.948Z,12.17
2019-02-25T14:45:31.512Z,10.77
2019-02-25T14:47:59.875Z,10.50
2019-02-25T14:50:29.067Z,10.20
2019-02-25T14:52:57.734Z,11.23
2019-02-25T14:55:26.616Z,10.13
2019-02-25T14:57:55.230Z,9.93
2019-02-25T15:00:28.408Z,11.20
2019-02-25T15:02:56.459Z,8.33
2019-02-25T15:05:25.326Z,7.87
2019-02-25T15:07:53.602Z,9.77
2019-02-25T15:10:26.638Z,9.30
2019-02-25T15:12:56.582Z,10.20
2019-02-25T15:15:23.263Z,10.00
2019-02-25T15:17:52.765Z,7.80
2019-02-25T15:20:23.338Z,11.60
2019-02-25T15:22:52.271Z,8.57
2019-02-25T15:25:21.108Z,7.97
2019-02-25T15:27:49.786Z,8.83
2019-02-25T15:30:25.086Z,16.23
2019-02-25T15:32:56.961Z,10.97
2019-02-25T15:35:26.534Z,8.47
2019-02-25T15:37:55.395Z,13.27
2019-02-25T15:40:27.114Z,10.77
2019-02-25T15:43:13.170Z,11.50
2019-02-25T15:45:43.065Z,11.63
2019-02-25T15:48:21.911Z,9.10
2019-02-25T15:50:55.972Z,8.27
2019-02-25T15:53:25.445Z,15.33
2019-02-25T15:55:57.215Z,24.30
2019-02-25T15:58:23.789Z,13.37
2019-02-25T16:00:52.115Z,9.37
2019-02-25T16:03:20.812Z,11.83
2019-02-25T16:05:52.261Z,7.83
2019-02-25T16:08:21.060Z,10.00
2019-02-25T16:10:51.151Z,9.27
2019-02-25T16:13:19.198Z,12.67
2019-02-25T16:15:47.528Z,10.73
2019-02-25T16:18:15.893Z,11.43
2019-02-25T16:20:46.233Z,9.40
2019-02-25T16:23:14.226Z,10.93
2019-02-25T16:25:42.762Z,12.40
2019-02-25T16:28:14.442Z,9.33
2019-02-25T16:30:42.407Z,12.47
2019-02-25T16:33:12.639Z,10.23
2019-02-25T16:35:41.685Z,11.83
2019-02-25T16:38:11.231Z,7.37
2019-02-25T16:40:40.127Z,6.77
2019-02-25T16:43:10.476Z,10.10
2019-02-25T16:45:40.125Z,9.50
2019-02-25T16:48:09.225Z,6.83
2019-02-25T16:50:39.201Z,9.17
2019-02-25T16:53:08.524Z,8.53
2019-02-25T16:55:37.555Z,16.63
2019-02-25T16:58:07.007Z,12.00
2019-02-25T17:00:37.323Z,9.07
2019-02-25T17:03:06.657Z,9.00
2019-02-25T17:05:37.960Z,8.87
2019-02-25T17:08:08.170Z,14.73
2019-02-25T17:10:36.763Z,10.63
2019-02-25T17:13:06.393Z,7.53
2019-02-25T17:15:37.292Z,9.00
2019-02-25T17:18:05.973Z,7.10
2019-02-25T17:20:34.262Z,8.73
2019-02-25T17:23:02.634Z,11.30
2019-02-25T17:25:31.677Z,9.50
2019-02-25T17:28:01.021Z,9.13
2019-02-25T17:30:29.695Z,10.73
2019-02-25T17:32:58.251Z,14.37
2019-02-25T17:35:28.888Z,11.23
2019-02-25T17:37:58.965Z,21.87
2019-02-25T17:40:27.002Z,16.23
2019-02-25T17:45:29.258Z,10.33
2019-02-25T17:47:58.271Z,11.73
2019-02-25T17:50:27.149Z,15.10
2019-02-25T17:52:55.530Z,12.20
2019-02-25T17:55:27.179Z,10.20
2019-02-25T17:57:56.986Z,10.50
2019-02-25T18:00:33.875Z,10.53
2019-02-25T18:03:03.641Z,12.00
2019-02-25T18:05:34.085Z,8.40
2019-02-25T18:08:02.986Z,8.10
2019-02-25T18:10:32.110Z,17.43
2019-02-25T18:13:01.272Z,16.90
2019-02-25T18:15:32.816Z,10.10
2019-02-25T18:18:01.323Z,14.43
2019-02-25T18:20:30.078Z,12.53
2019-02-25T18:22:58.959Z,11.40
2019-02-25T18:25:27.280Z,14.73
2019-02-25T18:27:55.671Z,13.07
2019-02-25T18:30:30.122Z,17.50
2019-02-25T18:33:00.974Z,19.80
2019-02-25T18:35:29.241Z,16.80
2019-02-25T18:37:58.619Z,14.07
2019-02-25T18:40:27.961Z,17.60
2019-02-25T18:42:58.014Z,19.57
2019-02-25T18:45:26.382Z,17.67
2019-02-25T18:47:54.738Z,19.83
2019-02-25T18:50:26.839Z,19.43
2019-02-25T18:52:56.709Z,15.00
2019-02-25T18:55:27.183Z,21.40
2019-02-25T18:57:56.597Z,20.37
2019-02-25T19:00:36.038Z,23.80
2019-02-25T19:03:05.656Z,21.83
2019-02-25T19:05:34.348Z,20.13
2019-02-25T19:08:04.812Z,19.37
2019-02-25T19:10:33.147Z,23.63
2019-02-25T19:13:01.724Z,23.20
2019-02-25T19:15:30.297Z,22.93
2019-02-25T19:17:58.996Z,22.67
2019-02-25T19:20:27.579Z,17.63
2019-02-25T19:23:00.494Z,19.77
2019-02-25T19:25:26.014Z,20.20
2019-02-25T19:27:56.368Z,18.90
2019-02-25T19:30:24.862Z,18.00
2019-02-25T19:32:54.899Z,21.43
2019-02-25T19:35:25.805Z,15.97
2019-02-25T19:37:53.345Z,21.83
2019-02-25T19:40:24.965Z,18.00
2019-02-25T19:42:54.236Z,18.20
2019-02-25T19:45:23.593Z,20.57
2019-02-25T19:47:52.047Z,22.60
2019-02-25T19:50:21.965Z,14.23
2019-02-25T19:52:50.291Z,17.63
2019-02-25T19:55:20.629Z,19.30
2019-02-25T19:57:49.893Z,17.67
2019-02-25T20:00:29.773Z,18.93
2019-02-25T20:03:05.676Z,26.40
2019-02-25T20:05:33.257Z,23.43
2019-02-25T20:08:01.773Z,24.60
2019-02-25T20:10:30.770Z,20.10
2019-02-25T20:12:59.359Z,16.80
2019-02-25T20:15:28.039Z,18.23
2019-02-25T20:17:56.390Z,22.50
2019-02-25T20:20:26.743Z,20.87
2019-02-25T20:22:55.015Z,20.67
2019-02-25T20:25:25.819Z,19.83
2019-02-25T20:27:55.143Z,22.27
2019-02-25T20:30:24.079Z,18.13
2019-02-25T20:32:53.454Z,22.00
2019-02-25T20:35:22.222Z,21.27
2019-02-25T20:37:53.777Z,15.80
2019-02-25T20:40:23.543Z,16.53
2019-02-25T20:42:53.484Z,23.67
2019-02-25T20:45:35.010Z,17.53
2019-02-25T20:48:04.378Z,23.70
2019-02-25T20:50:32.893Z,18.80
2019-02-25T20:53:05.639Z,24.40
2019-02-25T20:55:32.089Z,25.97
2019-02-25T20:58:01.176Z,30.00
2019-02-25T21:00:29.502Z,24.53
2019-02-25T21:02:57.788Z,15.37
2019-02-25T21:05:27.330Z,19.03
2019-02-25T21:07:59.179Z,17.97
2019-02-25T21:10:29.293Z,23.70
2019-02-25T21:12:57.161Z,17.50
2019-02-25T21:15:25.897Z,15.47
2019-02-25T21:17:55.102Z,16.57
2019-02-25T21:20:26.207Z,18.90
2019-02-25T21:22:57.359Z,25.23
2019-02-25T21:25:26.391Z,23.30
2019-02-25T21:27:57.125Z,18.27
2019-02-25T21:30:24.854Z,16.50
2019-02-25T21:32:54.327Z,16.90
2019-02-25T21:35:27.521Z,14.63
2019-02-25T21:37:54.621Z,18.37
2019-02-25T21:40:25.049Z,22.53
2019-02-25T21:42:56.396Z,15.23
2019-02-25T21:45:25.161Z,14.00
2019-02-25T21:47:56.048Z,17.77
2019-02-25T21:50:26.291Z,17.67
2019-02-25T21:52:53.912Z,15.47
2019-02-25T21:55:23.732Z,23.57
2019-02-25T21:57:54.406Z,16.80
2019-02-25T22:00:27.095Z,18.37
2019-02-25T22:02:56.211Z,22.97
2019-02-25T22:05:24.502Z,21.80
2019-02-25T22:07:54.738Z,25.13
2019-02-25T22:10:23.034Z,22.87
2019-02-25T22:12:51.391Z,21.80
2019-02-25T22:15:22.099Z,25.57
2019-02-25T22:17:52.300Z,28.07
2019-02-25T22:20:22.469Z,29.37
2019-02-25T22:22:54.650Z,23.43
2019-02-25T22:25:21.223Z,18.87
2019-02-25T22:27:49.875Z,18.87
2019-02-25T22:30:18.295Z,16.87
2019-02-25T22:32:46.598Z,23.47
2019-02-25T22:35:15.265Z,21.67
2019-02-25T22:37:46.772Z,16.17
2019-02-25T22:40:17.690Z,18.90
2019-02-25T22:42:47.903Z,19.30
2019-02-25T22:45:21.186Z,19.60
2019-02-25T22:47:49.477Z,20.13
2019-02-25T22:50:18.044Z,18.07
2019-02-25T22:52:46.323Z,18.70
2019-02-25T22:55:16.065Z,15.37
2019-02-25T22:57:46.182Z,15.90
2019-02-25T23:00:33.782Z,18.23
2019-02-25T23:03:02.261Z,16.97
2019-02-25T23:05:30.515Z,15.87
2019-02-25T23:07:58.822Z,20.30
2019-02-25T23:10:27.402Z,18.27
2019-02-25T23:12:55.695Z,18.33
2019-02-25T23:15:25.591Z,19.33
2019-02-25T23:17:53.957Z,17.93
2019-02-25T23:20:23.126Z,17.43
2019-02-25T23:22:53.015Z,18.73
2019-02-25T23:25:22.339Z,15.30
2019-02-25T23:27:53.369Z,13.87
2019-02-25T23:30:23.432Z,14.03
2019-02-25T23:32:52.349Z,11.77
2019-02-25T23:35:23.091Z,20.40
2019-02-25T23:37:53.746Z,12.50
2019-02-25T23:40:21.964Z,13.60
2019-02-25T23:42:50.259Z,13.07
2019-02-25T23:45:21.292Z,17.10
2019-02-25T23:47:48.516Z,11.93
2019-02-25T23:50:16.874Z,10.23
2019-02-25T23:52:45.215Z,11.43
2019-02-25T23:55:16.468Z,9.17
2019-02-25T23:57:44.284Z,11.80
